Time;durP1;ratioP1;P1;durP2;ratioP2;P2;SDS_P1;SDS_P2;PMS_P1;PMS_P2;Temp;Humidity;BMP_temperature;BMP_pressure;BME280_temperature;BME280_humidity;BME280_pressure;Samples;Min_cycle;Max_cycle;Signal;HPM_P1;HPM_P2
2022/10/21 00:01:35;;;;;;;;;;;6.00;1.00;;;;;;6246248;23;19973;-87
2022/10/21 00:04:02;;;;;;;;;;;5.90;99.90;;;;;;6246507;23;19912;-86
2022/10/21 00:06:29;;;;;;;;;;;5.90;99.90;;;;;;6246501;23;19965;-86
2022/10/21 00:08:55;;;;;;;;;;;6.10;1.00;;;;;;6246248;22;19911;-87
2022/10/21 00:11:23;;;;;;;;;;;5.90;1.00;;;;;;6246666;22;20326;-86
2022/10/21 00:13:50;;;;;;;;;;;6.10;1.00;;;;;;6246302;22;20253;-87
2022/10/21 00:16:18;;;;;;;;;;;5.90;1.00;;;;;;6246831;23;19916;-87
2022/10/21 00:18:46;;;;;;;;;;;6.10;1.00;;;;;;6246489;22;19915;-86
2022/10/21 00:21:14;;;;;;;;;;;6.00;7.80;;;;;;6246430;23;19965;-86
2022/10/21 00:23:42;;;;;;;;;;;6.10;1.00;;;;;;6245919;23;20321;-86
2022/10/21 00:26:09;;;;;;;;;;;6.10;34.40;;;;;;6245714;23;19919;-86
2022/10/21 00:28:36;;;;;;;;;;;6.10;99.90;;;;;;6245867;23;19911;-87
2022/10/21 00:31:05;;;;;;;;;;;6.30;99.90;;;;;;6245994;23;19912;-86
2022/10/21 00:33:32;;;;;;;;;;;6.00;99.90;;;;;;6245763;22;19911;-86
2022/10/21 00:36:01;;;;;;;;;;;6.10;99.90;;;;;;6245965;23;20314;-86
2022/10/21 00:38:28;;;;;;;;;;;6.20;99.90;;;;;;6246188;22;19990;-85
2022/10/21 00:40:55;;;;;;;;;;;6.10;99.90;;;;;;6245951;22;19915;-85
2022/10/21 00:43:22;;;;;;;;;;;6.20;99.90;;;;;;6246236;23;19915;-86
2022/10/21 00:45:50;;;;;;;;;;;6.10;99.90;;;;;;6246367;23;19950;-86
2022/10/21 00:48:22;;;;;;;;;;;6.20;99.90;;;;;;6246103;23;19915;-86
2022/10/21 00:50:52;;;;;;;;;;;6.20;99.90;;;;;;6246509;23;19915;-86
2022/10/21 00:53:19;;;;;;;;;;;;;;;;;;6246003;23;19915;-86
2022/10/21 00:55:49;;;;;;;;;;;6.00;99.90;;;;;;6246425;23;19966;-85
2022/10/21 00:58:17;;;;;;;;;;;6.00;99.90;;;;;;6246299;23;19917;-85
2022/10/21 01:00:43;;;;;;;;;;;6.00;99.90;;;;;;6245569;22;19957;-86
2022/10/21 01:03:10;;;;;;;;;;;6.10;99.90;;;;;;6245856;23;20614;-86
2022/10/21 01:05:38;;;;;;;;;;;6.00;99.90;;;;;;6246072;23;19915;-86
2022/10/21 01:08:05;;;;;;;;;;;6.10;99.90;;;;;;6245525;22;20352;-86
2022/10/21 01:10:32;;;;;;;;;;;6.10;99.90;;;;;;6219185;23;19918;-86
2022/10/21 01:13:08;;;;;;;;;;;6.10;99.90;;;;;;6246052;22;19911;-86
2022/10/21 01:15:37;;;;;;;;;;;6.10;99.90;;;;;;6245387;23;20257;-85
2022/10/21 01:18:08;;;;;;;;;;;6.20;99.90;;;;;;6245985;22;19911;-86
2022/10/21 01:20:41;;;;;;;;;;;6.20;99.90;;;;;;6245843;23;19912;-85
2022/10/21 01:23:27;;;;;;;;;;;6.30;99.90;;;;;;6245980;23;19915;-86
2022/10/21 01:26:04;;;;;;;;;;;6.20;99.90;;;;;;6245734;23;19965;-86
2022/10/21 01:28:40;;;;;;;;;;;6.30;99.90;;;;;;6246046;23;19989;-85
2022/10/21 01:31:12;;;;;;;;;;;6.40;99.90;;;;;;6245376;23;19911;-85
2022/10/21 01:33:40;;;;;;;;;;;6.40;99.90;;;;;;6245716;23;20207;-86
2022/10/21 01:36:11;;;;;;;;;;;6.40;99.90;;;;;;6244753;23;19965;-85
2022/10/21 01:38:42;;;;;;;;;;;6.40;99.90;;;;;;6245330;23;20376;-85
2022/10/21 01:41:11;;;;;;;;;;;6.50;99.90;;;;;;6245236;23;20311;-85
2022/10/21 01:43:43;;;;;;;;;;;6.50;99.90;;;;;;6245343;23;20310;-85
2022/10/21 01:46:13;;;;;;;;;;;6.60;99.90;;;;;;6245457;23;19915;-85
2022/10/21 01:48:43;;;;;;;;;;;6.60;99.90;;;;;;6245060;23;20207;-86
2022/10/21 01:51:11;;;;;;;;;;;6.70;99.90;;;;;;6245544;23;19911;-85
2022/10/21 01:53:40;;;;;;;;;;;6.70;99.90;;;;;;6245151;23;19926;-85
2022/10/21 01:56:08;;;;;;;;;;;6.70;99.90;;;;;;6245524;23;19916;-86
2022/10/21 01:58:36;;;;;;;;;;;6.70;99.90;;;;;;6245028;23;19918;-86
2022/10/21 02:01:04;;;;;;;;;;;6.80;99.90;;;;;;6245561;23;19957;-86
2022/10/21 02:03:35;;;;;;;;;;;6.80;99.90;;;;;;6245447;23;19923;-85
2022/10/21 02:06:01;;;;;;;;;;;6.80;99.90;;;;;;6245418;23;20334;-85
2022/10/21 02:08:28;;;;;;;;;;;6.80;99.90;;;;;;6245063;23;19965;-86
2022/10/21 02:10:57;;;;;;;;;;;6.80;99.90;;;;;;6245443;23;19911;-86
2022/10/21 02:13:25;;;;;;;;;;;6.80;99.90;;;;;;6245071;23;20074;-85
2022/10/21 02:15:54;;;;;;;;;;;6.80;99.90;;;;;;6244786;23;20376;-86
2022/10/21 02:18:22;;;;;;;;;;;6.80;99.90;;;;;;6245293;22;19969;-86
2022/10/21 02:20:53;;;;;;;;;;;6.80;99.90;;;;;;6245023;22;19916;-85
2022/10/21 02:23:23;;;;;;;;;;;6.90;99.90;;;;;;6245122;23;19911;-86
2022/10/21 02:25:50;;;;;;;;;;;7.00;99.90;;;;;;6245096;23;20200;-86
2022/10/21 02:28:17;;;;;;;;;;;6.90;99.90;;;;;;6245626;22;19911;-86
2022/10/21 02:30:49;;;;;;;;;;;6.90;99.90;;;;;;6245271;23;19915;-86
2022/10/21 02:33:19;;;;;;;;;;;6.90;99.90;;;;;;6245630;23;19911;-86
2022/10/21 02:35:50;;;;;;;;;;;6.90;99.90;;;;;;6245328;23;19967;-85
2022/10/21 02:38:22;;;;;;;;;;;6.90;99.90;;;;;;6245695;23;19911;-86
2022/10/21 02:40:51;;;;;;;;;;;6.90;99.90;;;;;;6245536;23;19915;-85
2022/10/21 02:43:19;;;;;;;;;;;6.90;99.90;;;;;;6245578;23;19911;-86
2022/10/21 02:45:47;;;;;;;;;;;6.90;99.90;;;;;;6245194;23;19915;-85
2022/10/21 02:48:14;;;;;;;;;;;6.90;99.90;;;;;;6247350;22;19918;-86
2022/10/21 02:50:40;;;;;;;;;;;6.90;99.90;;;;;;6248173;22;19970;-85
2022/10/21 02:53:08;;;;;;;;;;;6.90;99.90;;;;;;6248547;23;19911;-86
2022/10/21 02:55:36;;;;;;;;;;;6.80;99.90;;;;;;6248005;22;19934;-86
2022/10/21 02:58:03;;;;;;;;;;;6.80;99.90;;;;;;6248140;23;19919;-85
2022/10/21 03:00:30;;;;;;;;;;;6.80;99.90;;;;;;6248497;22;19918;-85
2022/10/21 03:02:57;;;;;;;;;;;6.80;99.90;;;;;;6248567;23;19973;-85
2022/10/21 03:05:23;;;;;;;;;;;6.80;99.90;;;;;;6248313;23;19957;-85
2022/10/21 03:07:50;;;;;;;;;;;6.80;99.90;;;;;;6248666;22;19915;-85
2022/10/21 03:10:17;;;;;;;;;;;6.80;99.90;;;;;;6248907;22;19911;-85
2022/10/21 03:12:45;;;;;;;;;;;6.80;99.90;;;;;;6248431;22;19911;-85
2022/10/21 03:15:12;;;;;;;;;;;6.80;99.90;;;;;;6248296;23;20285;-85
2022/10/21 03:17:39;;;;;;;;;;;6.80;99.90;;;;;;6248532;22;19916;-86
2022/10/21 03:20:06;;;;;;;;;;;6.80;99.90;;;;;;6248717;22;19912;-86
2022/10/21 03:22:33;;;;;;;;;;;6.90;99.90;;;;;;6248149;23;19915;-85
2022/10/21 03:25:00;;;;;;;;;;;6.80;99.90;;;;;;6247989;22;19911;-85
2022/10/21 03:27:27;;;;;;;;;;;6.80;99.90;;;;;;6250088;23;19911;-86
2022/10/21 03:29:55;;;;;;;;;;;6.90;99.90;;;;;;6250216;23;19912;-86
2022/10/21 03:32:22;;;;;;;;;;;6.80;99.90;;;;;;6256140;23;20223;-86
2022/10/21 03:34:49;;;;;;;;;;;6.80;99.90;;;;;;6256034;22;19930;-86
2022/10/21 03:37:16;;;;;;;;;;;6.80;99.90;;;;;;6256563;23;19911;-85
2022/10/21 03:39:42;;;;;;;;;;;6.90;99.90;;;;;;6256009;22;19919;-85
2022/10/21 03:42:09;;;;;;;;;;;6.90;99.90;;;;;;6255864;23;19942;-86
2022/10/21 03:44:36;;;;;;;;;;;6.80;99.90;;;;;;6255967;23;19942;-85
2022/10/21 03:47:04;;;;;;;;;;;6.80;99.90;;;;;;6256249;22;19965;-85
2022/10/21 03:49:31;;;;;;;;;;;6.90;99.90;;;;;;6256358;22;19911;-85
2022/10/21 03:51:58;;;;;;;;;;;6.90;99.90;;;;;;6255895;23;19915;-85
2022/10/21 03:54:25;;;;;;;;;;;6.90;99.90;;;;;;6256043;22;19927;-85
2022/10/21 03:56:53;;;;;;;;;;;6.90;99.90;;;;;;6254897;22;19911;-86
2022/10/21 03:59:19;;;;;;;;;;;6.90;99.90;;;;;;6254496;23;19990;-86
2022/10/21 04:01:46;;;;;;;;;;;6.90;99.90;;;;;;6253954;23;19915;-86
2022/10/21 04:04:14;;;;;;;;;;;6.80;99.90;;;;;;6251500;23;19915;-86
2022/10/21 04:06:41;;;;;;;;;;;6.90;99.90;;;;;;6246694;22;19922;-86
2022/10/21 04:09:08;;;;;;;;;;;6.90;99.90;;;;;;6246840;23;19915;-86
2022/10/21 04:11:35;;;;;;;;;;;6.80;99.90;;;;;;6246257;23;20333;-86
2022/10/21 04:14:01;;;;;;;;;;;6.80;99.90;;;;;;6246368;23;20319;-86
2022/10/21 04:16:28;;;;;;;;;;;6.80;99.90;;;;;;6246496;23;19918;-86
2022/10/21 04:18:55;;;;;;;;;;;6.80;99.90;;;;;;6246877;23;19912;-86
2022/10/21 04:21:23;;;;;;;;;;;6.80;99.90;;;;;;6246272;23;19957;-86
2022/10/21 04:23:50;;;;;;;;;;;6.90;99.90;;;;;;6247132;23;19983;-86
2022/10/21 04:26:17;;;;;;;;;;;6.70;99.90;;;;;;6247046;23;19965;-85
2022/10/21 04:28:44;;;;;;;;;;;6.80;99.90;;;;;;6246735;23;19915;-87
2022/10/21 04:31:11;;;;;;;;;;;6.80;99.90;;;;;;6246597;23;19920;-86
2022/10/21 04:33:37;;;;;;;;;;;6.70;99.90;;;;;;6246777;23;19911;-86
2022/10/21 04:36:04;;;;;;;;;;;6.70;99.90;;;;;;6246604;23;19911;-87
2022/10/21 04:38:33;;;;;;;;;;;6.70;1.00;;;;;;6245750;23;19912;-86
2022/10/21 04:41:00;;;;;;;;;;;6.70;99.90;;;;;;6245962;22;19918;-86
2022/10/21 04:43:27;;;;;;;;;;;6.60;99.90;;;;;;6246290;23;19911;-86
2022/10/21 04:45:54;;;;;;;;;;;6.70;99.90;;;;;;6245911;23;20307;-87
2022/10/21 04:48:21;;;;;;;;;;;6.60;1.00;;;;;;6246607;23;19919;-87
2022/10/21 04:50:48;;;;;;;;;;;6.60;1.00;;;;;;6246266;23;19957;-86
2022/10/21 04:53:15;;;;;;;;;;;6.60;1.00;;;;;;6246321;23;19965;-86
2022/10/21 04:55:43;;;;;;;;;;;6.60;1.00;;;;;;6246260;22;20294;-86
2022/10/21 04:58:10;;;;;;;;;;;6.60;99.90;;;;;;6245351;23;19915;-87
2022/10/21 05:00:37;;;;;;;;;;;6.50;1.00;;;;;;6244509;22;20318;-86
2022/10/21 05:03:04;;;;;;;;;;;6.50;1.00;;;;;;6245305;23;19989;-87
2022/10/21 05:05:31;;;;;;;;;;;6.50;1.00;;;;;;6244853;22;19962;-86
2022/10/21 05:07:57;;;;;;;;;;;6.50;1.00;;;;;;6244780;22;19912;-86
2022/10/21 05:10:25;;;;;;;;;;;6.60;1.00;;;;;;6244298;23;19965;-86
2022/10/21 05:12:53;;;;;;;;;;;6.70;1.00;;;;;;6244624;23;19911;-89
2022/10/21 05:15:20;;;;;;;;;;;6.70;1.00;;;;;;6244522;22;19911;-88
2022/10/21 05:17:46;;;;;;;;;;;6.70;99.90;;;;;;6244996;23;20318;-89
2022/10/21 05:20:13;;;;;;;;;;;6.70;1.00;;;;;;6245662;22;20145;-89
2022/10/21 05:22:40;;;;;;;;;;;6.80;99.90;;;;;;6245905;23;19916;-89
2022/10/21 05:25:07;;;;;;;;;;;6.80;99.90;;;;;;6245644;23;19916;-89
2022/10/21 05:27:34;;;;;;;;;;;6.80;99.90;;;;;;6246022;22;19919;-88
2022/10/21 05:30:03;;;;;;;;;;;6.80;1.00;;;;;;6245941;23;19912;-88
2022/10/21 05:32:29;;;;;;;;;;;6.80;1.00;;;;;;6245955;23;19918;-88
2022/10/21 05:34:56;;;;;;;;;;;6.80;1.00;;;;;;6245928;23;19912;-88
2022/10/21 05:37:23;;;;;;;;;;;6.80;99.90;;;;;;6245892;22;19912;-89
2022/10/21 05:39:50;;;;;;;;;;;6.80;1.00;;;;;;6246087;23;19915;-89
2022/10/21 05:42:17;;;;;;;;;;;6.80;1.00;;;;;;6246228;23;19915;-89
2022/10/21 05:44:43;;;;;;;;;;;6.80;1.00;;;;;;6245903;22;20105;-89
2022/10/21 05:47:12;;;;;;;;;;;6.80;1.00;;;;;;6245678;23;19911;-89
2022/10/21 05:49:38;;;;;;;;;;;6.90;1.00;;;;;;6245846;22;19986;-89
2022/10/21 05:52:05;;;;;;;;;;;6.80;1.00;;;;;;6245478;22;19915;-89
2022/10/21 05:54:32;;;;;;;;;;;6.80;1.00;;;;;;6245808;23;19958;-89
2022/10/21 05:56:59;;;;;;;;;;;6.80;1.00;;;;;;6245305;23;19911;-89
2022/10/21 05:59:26;;;;;;;;;;;6.80;1.00;;;;;;6245300;23;19911;-89
2022/10/21 06:01:53;;;;;;;;;;;6.70;1.00;;;;;;6245733;23;19954;-87
2022/10/21 06:04:21;;;;;;;;;;;6.80;1.00;;;;;;6246016;23;19916;-87
2022/10/21 06:06:48;;;;;;;;;;;6.80;1.00;;;;;;6245822;22;19915;-87
2022/10/21 06:09:14;;;;;;;;;;;6.90;1.00;;;;;;6245585;22;19915;-87
2022/10/21 06:11:41;;;;;;;;;;;6.90;1.00;;;;;;6245256;23;19961;-88
2022/10/21 06:14:08;;;;;;;;;;;6.90;1.00;;;;;;6245275;22;20320;-87
2022/10/21 06:16:35;;;;;;;;;;;6.90;1.00;;;;;;6245158;23;20285;-88
2022/10/21 06:19:08;;;;;;;;;;;6.90;1.00;;;;;;6250569;23;19912;-90
2022/10/21 06:22:10;;;;;;;;;;;;;;;;;;;;;
2022/10/21 06:24:55;;;;;;;;;;;;;;;;;;;;;
2022/10/21 06:27:43;;;;;;;;;;;6.90;1.00;;;;;;6267803;23;19912;-91
2022/10/21 06:33:45;;;;;;;;;;;7.10;1.00;;;;;;6239086;22;19918;-93
2022/10/21 06:36:23;;;;;;;;;;;7.20;1.00;;;;;;6227833;22;19916;-89
2022/10/21 06:42:02;;;;;;;;;;;7.30;1.00;;;;;;6190634;23;19912;-89
2022/10/21 06:50:39;;;;;;;;;;;7.30;1.00;;;;;;6165554;23;19917;-87
2022/10/21 06:53:24;;;;;;;;;;;7.40;1.00;;;;;;6175026;23;19913;-88
2022/10/21 06:56:23;;;;;;;;;;;;;;;;;;;;;
2022/10/21 07:01:49;;;;;;;;;;;7.60;1.00;;;;;;6171175;23;19983;-89
2022/10/21 07:04:16;;;;;;;;;;;7.60;1.00;;;;;;6178190;23;20258;-87
2022/10/21 07:06:45;;;;;;;;;;;7.60;1.00;;;;;;6245366;23;19915;-88
2022/10/21 07:09:12;;;;;;;;;;;7.60;1.00;;;;;;6245147;22;19990;-87
2022/10/21 07:11:55;;;;;;;;;;;7.70;1.00;;;;;;6260518;23;19941;-92
2022/10/21 07:14:26;;;;;;;;;;;7.70;1.00;;;;;;6271707;22;19912;-94
2022/10/21 07:19:37;;;;;;;;;;;7.90;1.00;;;;;;6242525;23;19911;-87
2022/10/21 07:22:06;;;;;;;;;;;8.00;1.00;;;;;;6265329;23;19911;-89
2022/10/21 07:24:43;;;;;;;;;;;8.00;1.00;;;;;;6266474;22;19900;-92
2022/10/21 07:27:14;;;;;;;;;;;8.10;1.00;;;;;;6271101;23;19912;-92
2022/10/21 07:29:40;;;;;;;;;;;8.20;1.00;;;;;;6263889;23;19912;-89
2022/10/21 07:32:08;;;;;;;;;;;8.30;1.00;;;;;;6264311;23;19911;-91
2022/10/21 07:34:35;;;;;;;;;;;8.50;1.00;;;;;;6267593;23;19935;-88
2022/10/21 07:37:02;;;;;;;;;;;8.70;1.00;;;;;;6267045;23;19900;-93
2022/10/21 07:39:33;;;;;;;;;;;8.90;1.00;;;;;;6273636;22;19899;-91
2022/10/21 07:42:00;;;;;;;;;;;9.10;99.90;;;;;;6270446;23;19922;-87
2022/10/21 07:44:27;;;;;;;;;;;9.20;99.90;;;;;;6251873;22;19918;-88
2022/10/21 07:46:56;;;;;;;;;;;9.30;99.90;;;;;;6257268;22;19912;-93
2022/10/21 07:52:14;;;;;;;;;;;9.90;1.00;;;;;;6269557;22;19906;-89
2022/10/21 07:54:42;;;;;;;;;;;10.10;99.90;;;;;;6248015;22;19965;-89
2022/10/21 07:57:09;;;;;;;;;;;10.30;99.90;;;;;;6253445;22;19922;-87
2022/10/21 07:59:36;;;;;;;;;;;10.30;99.90;;;;;;6246846;23;19977;-89
2022/10/21 08:02:03;;;;;;;;;;;10.40;99.90;;;;;;6246561;23;20381;-89
2022/10/21 08:04:32;;;;;;;;;;;10.50;99.90;;;;;;6250331;22;19934;-90
2022/10/21 08:07:00;;;;;;;;;;;10.60;99.90;;;;;;6260519;23;19912;-87
2022/10/21 08:09:26;;;;;;;;;;;10.50;99.90;;;;;;6246456;22;19973;-88
2022/10/21 08:11:55;;;;;;;;;;;10.50;99.90;;;;;;6246487;22;20218;-87
2022/10/21 08:14:23;;;;;;;;;;;10.40;93.00;;;;;;6248306;23;19918;-88
2022/10/21 08:16:51;;;;;;;;;;;10.40;94.30;;;;;;6246642;23;20347;-90
2022/10/21 08:19:19;;;;;;;;;;;10.30;74.60;;;;;;6247149;22;19961;-89
2022/10/21 08:21:45;;;;;;;;;;;10.20;40.70;;;;;;6256816;23;19977;-88
2022/10/21 08:24:12;;;;;;;;;;;10.10;46.10;;;;;;6247731;22;19923;-89
2022/10/21 08:26:39;;;;;;;;;;;10.10;31.80;;;;;;6253042;23;19965;-90
2022/10/21 08:29:10;;;;;;;;;;;10.00;19.20;;;;;;6267841;22;19906;-91
2022/10/21 08:31:39;;;;;;;;;;;10.00;33.40;;;;;;6267961;23;19911;-90
2022/10/21 08:34:08;;;;;;;;;;;9.90;29.00;;;;;;6273410;22;19921;-91
2022/10/21 08:36:43;;;;;;;;;;;9.90;22.60;;;;;;6273288;22;19911;-92
2022/10/21 08:39:10;;;;;;;;;;;9.90;28.20;;;;;;6272621;23;19912;-89
2022/10/21 08:41:53;;;;;;;;;;;10.00;27.60;;;;;;6268280;22;19899;-92
2022/10/21 08:44:33;;;;;;;;;;;9.90;26.90;;;;;;6257983;23;19911;-88
2022/10/21 08:47:07;;;;;;;;;;;10.00;51.40;;;;;;6257116;23;19918;-93
2022/10/21 08:49:57;;;;;;;;;;;10.00;28.40;;;;;;6272195;22;19918;-92
2022/10/21 08:52:26;;;;;;;;;;;10.00;78.70;;;;;;6260946;23;19981;-88
2022/10/21 08:54:55;;;;;;;;;;;10.00;53.30;;;;;;6251512;22;19911;-89
2022/10/21 08:57:23;;;;;;;;;;;10.00;26.00;;;;;;6262658;23;19911;-92
2022/10/21 08:59:53;;;;;;;;;;;9.90;52.70;;;;;;6264131;22;19900;-90
2022/10/21 09:02:36;;;;;;;;;;;9.90;39.10;;;;;;6262331;23;19912;-91
2022/10/21 09:05:12;;;;;;;;;;;9.90;45.30;;;;;;6270959;23;19918;-89
2022/10/21 09:07:47;;;;;;;;;;;9.90;46.10;;;;;;6262281;23;19930;-91
2022/10/21 09:16:18;;;;;;;;;;;;;;;;;;;;;
2022/10/21 09:21:47;;;;;;;;;;;9.80;99.90;;;;;;6174050;23;19917;-91
2022/10/21 09:24:20;;;;;;;;;;;9.90;99.90;;;;;;6192968;23;19956;-91
2022/10/21 09:26:53;;;;;;;;;;;9.90;99.90;;;;;;6269690;23;19900;-90
2022/10/21 09:29:29;;;;;;;;;;;10.00;99.90;;;;;;6268210;23;19911;-91
2022/10/21 09:32:02;;;;;;;;;;;10.10;99.90;;;;;;6269602;23;19915;-90
2022/10/21 09:35:06;;;;;;;;;;;10.30;99.90;;;;;;6269603;23;19918;-91
2022/10/21 09:40:43;;;;;;;;;;;10.60;99.90;;;;;;6266839;22;19911;-89
2022/10/21 09:43:25;;;;;;;;;;;10.80;99.90;;;;;;6269281;23;19911;-92
2022/10/21 09:45:52;;;;;;;;;;;11.00;99.90;;;;;;6245833;23;19916;-88
2022/10/21 09:48:29;;;;;;;;;;;11.20;99.90;;;;;;6245470;23;19915;-88
2022/10/21 09:50:59;;;;;;;;;;;11.20;99.90;;;;;;6246310;23;19915;-89
2022/10/21 09:53:31;;;;;;;;;;;11.30;99.90;;;;;;6246186;22;19915;-90
2022/10/21 09:56:01;;;;;;;;;;;11.30;99.90;;;;;;6246139;23;20030;-88
2022/10/21 09:58:28;;;;;;;;;;;11.30;99.90;;;;;;6245757;22;19938;-88
2022/10/21 10:00:55;;;;;;;;;;;11.20;99.90;;;;;;6245717;22;19912;-88
2022/10/21 10:03:34;;;;;;;;;;;11.10;99.90;;;;;;6245415;23;19911;-88
2022/10/21 10:06:01;;;;;;;;;;;11.00;99.90;;;;;;6245831;22;19915;-87
2022/10/21 10:08:30;;;;;;;;;;;11.00;99.90;;;;;;6245769;22;19965;-88
2022/10/21 10:11:12;;;;;;;;;;;11.00;99.90;;;;;;6245770;23;19911;-88
2022/10/21 10:13:39;;;;;;;;;;;11.00;99.90;;;;;;6245043;23;19911;-88
2022/10/21 10:16:18;;;;;;;;;;;11.00;99.90;;;;;;6245537;22;19969;-88
2022/10/21 10:18:46;;;;;;;;;;;11.10;99.90;;;;;;6245688;23;19957;-87
2022/10/21 10:21:14;;;;;;;;;;;11.20;99.90;;;;;;6245136;22;19915;-88
2022/10/21 10:23:45;;;;;;;;;;;11.20;99.90;;;;;;6245581;22;19957;-87
2022/10/21 10:26:16;;;;;;;;;;;11.20;99.90;;;;;;6245558;22;19965;-88
2022/10/21 10:28:47;;;;;;;;;;;11.20;99.90;;;;;;6245163;22;19961;-88
2022/10/21 10:31:22;;;;;;;;;;;11.30;99.90;;;;;;6245039;23;20372;-87
2022/10/21 10:33:53;;;;;;;;;;;11.50;99.90;;;;;;6245090;23;19927;-88
2022/10/21 10:36:25;;;;;;;;;;;11.50;99.90;;;;;;6245503;23;19911;-88
2022/10/21 10:38:53;;;;;;;;;;;11.50;99.90;;;;;;6245510;23;19911;-88
2022/10/21 10:41:20;;;;;;;;;;;11.50;99.90;;;;;;6245361;23;19915;-88
2022/10/21 10:43:49;;;;;;;;;;;11.60;99.90;;;;;;6244981;23;19915;-88
2022/10/21 10:46:20;;;;;;;;;;;11.60;99.90;;;;;;6245346;23;20234;-87
2022/10/21 10:48:49;;;;;;;;;;;11.70;99.90;;;;;;6245338;23;19919;-88
2022/10/21 10:51:26;;;;;;;;;;;11.80;99.90;;;;;;6245028;23;20284;-87
2022/10/21 10:54:00;;;;;;;;;;;11.80;21.80;;;;;;6245099;23;19911;-88
2022/10/21 10:56:28;;;;;;;;;;;12.00;95.20;;;;;;6245737;23;19986;-88
2022/10/21 10:58:59;;;;;;;;;;;12.20;99.90;;;;;;6245416;23;19965;-87
2022/10/21 11:01:30;;;;;;;;;;;12.30;99.90;;;;;;6245645;22;19965;-88
2022/10/21 11:04:01;;;;;;;;;;;12.20;40.60;;;;;;6245530;23;19919;-88
2022/10/21 11:06:34;;;;;;;;;;;12.30;1.00;;;;;;6245138;23;20311;-88
2022/10/21 11:09:01;;;;;;;;;;;12.30;1.00;;;;;;6245511;23;19990;-86
2022/10/21 11:11:35;;;;;;;;;;;12.30;1.00;;;;;;6247346;23;19934;-88
2022/10/21 11:14:02;;;;;;;;;;;12.30;1.00;;;;;;6246968;23;19957;-87
2022/10/21 11:16:36;;;;;;;;;;;12.30;1.00;;;;;;6246985;23;19919;-87
2022/10/21 11:19:07;;;;;;;;;;;12.40;1.00;;;;;;6247345;23;19911;-87
2022/10/21 11:21:42;;;;;;;;;;;12.40;1.00;;;;;;6246888;23;19912;-87
2022/10/21 11:24:17;;;;;;;;;;;12.50;1.00;;;;;;6247268;23;19912;-87
2022/10/21 11:26:48;;;;;;;;;;;12.90;97.00;;;;;;6246919;23;19943;-87
2022/10/21 11:29:23;;;;;;;;;;;12.90;1.00;;;;;;6246848;23;20273;-88
2022/10/21 11:31:53;;;;;;;;;;;13.10;1.00;;;;;;6247166;23;20311;-87
2022/10/21 11:34:25;;;;;;;;;;;13.20;1.00;;;;;;6247690;23;19918;-87
2022/10/21 11:36:58;;;;;;;;;;;13.30;1.00;;;;;;6247220;23;19958;-87
2022/10/21 11:39:31;;;;;;;;;;;13.40;1.00;;;;;;6246820;23;20281;-87
2022/10/21 11:42:00;;;;;;;;;;;13.40;1.00;;;;;;6247348;23;19923;-87
2022/10/21 11:44:34;;;;;;;;;;;13.40;1.00;;;;;;6247322;23;19918;-87
2022/10/21 11:47:05;;;;;;;;;;;13.50;1.00;;;;;;6246684;23;20322;-87
2022/10/21 11:49:41;;;;;;;;;;;13.60;1.00;;;;;;6247015;23;19915;-87
2022/10/21 11:52:17;;;;;;;;;;;13.60;1.00;;;;;;6247017;23;19912;-87
2022/10/21 11:54:52;;;;;;;;;;;13.50;1.00;;;;;;6246908;23;19915;-87
2022/10/21 11:57:21;;;;;;;;;;;13.60;1.00;;;;;;6246886;23;19923;-87
2022/10/21 11:59:55;;;;;;;;;;;13.60;1.00;;;;;;6246411;22;20319;-87
2022/10/21 12:02:24;;;;;;;;;;;13.50;1.00;;;;;;6246983;23;20266;-88
2022/10/21 12:04:59;;;;;;;;;;;13.50;1.00;;;;;;6246778;22;19911;-87
2022/10/21 12:07:43;;;;;;;;;;;13.50;1.00;;;;;;6247077;23;19911;-87
2022/10/21 12:10:14;;;;;;;;;;;13.50;1.00;;;;;;6230941;23;19957;-87
2022/10/21 12:12:45;;;;;;;;;;;13.60;1.00;;;;;;6246377;23;19965;-87
2022/10/21 12:15:16;;;;;;;;;;;13.60;1.00;;;;;;6246754;23;19958;-87
2022/10/21 12:17:44;;;;;;;;;;;13.70;1.00;;;;;;6246541;23;19912;-87
2022/10/21 12:20:15;;;;;;;;;;;13.90;1.00;;;;;;6246006;22;20306;-87
2022/10/21 12:22:41;;;;;;;;;;;13.90;1.00;;;;;;6246791;23;19965;-87
2022/10/21 12:25:14;;;;;;;;;;;14.00;1.00;;;;;;6246288;22;19915;-87
2022/10/21 12:27:44;;;;;;;;;;;14.00;1.00;;;;;;6246542;23;19965;-87
2022/10/21 12:30:16;;;;;;;;;;;14.10;1.00;;;;;;6246309;23;19911;-87
2022/10/21 12:32:46;;;;;;;;;;;14.10;1.00;;;;;;6246756;23;19918;-87
2022/10/21 12:35:14;;;;;;;;;;;14.10;1.00;;;;;;6246112;22;19911;-87
2022/10/21 12:37:45;;;;;;;;;;;14.00;1.00;;;;;;6246496;23;20219;-88
2022/10/21 12:40:13;;;;;;;;;;;14.00;1.00;;;;;;6246022;23;20273;-87
2022/10/21 12:42:45;;;;;;;;;;;14.00;1.00;;;;;;6246440;23;19911;-87
2022/10/21 12:45:25;;;;;;;;;;;14.00;1.00;;;;;;6246498;23;20265;-87
2022/10/21 12:47:52;;;;;;;;;;;14.00;1.00;;;;;;6246084;23;19990;-87
2022/10/21 12:50:24;;;;;;;;;;;14.10;1.00;;;;;;6246362;22;19961;-87
2022/10/21 12:53:05;;;;;;;;;;;14.10;1.00;;;;;;6246103;23;19912;-87
2022/10/21 12:55:38;;;;;;;;;;;14.10;1.00;;;;;;6245814;22;19911;-87
2022/10/21 12:58:12;;;;;;;;;;;14.10;1.00;;;;;;6246375;23;19990;-87
2022/10/21 13:00:56;;;;;;;;;;;14.10;1.00;;;;;;6246324;23;20219;-87
2022/10/21 13:03:43;;;;;;;;;;;14.20;1.00;;;;;;6246306;23;19986;-87
2022/10/21 13:06:11;;;;;;;;;;;14.30;1.00;;;;;;6244927;23;20285;-87
2022/10/21 13:08:39;;;;;;;;;;;14.50;1.00;;;;;;6245614;23;20307;-88
2022/10/21 13:11:13;;;;;;;;;;;14.80;1.00;;;;;;6245752;23;19915;-87
2022/10/21 13:13:41;;;;;;;;;;;15.00;1.00;;;;;;6246197;23;20311;-87
2022/10/21 13:16:26;;;;;;;;;;;15.20;1.00;;;;;;6246033;23;20293;-87
2022/10/21 13:18:54;;;;;;;;;;;15.40;1.00;;;;;;6246087;23;19912;-87
2022/10/21 13:21:23;;;;;;;;;;;15.50;1.00;;;;;;6245815;23;19980;-87
2022/10/21 13:23:51;;;;;;;;;;;15.50;1.00;;;;;;6246128;23;19966;-87
2022/10/21 13:26:24;;;;;;;;;;;15.30;1.00;;;;;;6245988;22;19969;-87
2022/10/21 13:28:57;;;;;;;;;;;15.20;1.00;;;;;;6246053;23;19915;-85
2022/10/21 13:31:24;;;;;;;;;;;15.00;1.00;;;;;;6245730;23;19919;-88
2022/10/21 13:33:52;;;;;;;;;;;15.00;1.00;;;;;;6245217;22;19957;-85
2022/10/21 13:36:38;;;;;;;;;;;15.00;1.00;;;;;;6269487;23;19929;-89
2022/10/21 13:39:08;;;;;;;;;;;14.90;1.00;;;;;;6268900;22;19943;-87
2022/10/21 13:41:39;;;;;;;;;;;14.80;1.00;;;;;;6259451;23;19915;-89
2022/10/21 13:44:19;;;;;;;;;;;14.80;1.00;;;;;;6266471;23;19942;-86
2022/10/21 13:46:54;;;;;;;;;;;14.80;1.00;;;;;;6272420;23;19952;-90
2022/10/21 13:52:37;;;;;;;;;;;14.60;1.00;;;;;;6194836;23;19939;-90
2022/10/21 13:55:08;;;;;;;;;;;14.50;1.00;;;;;;6270926;23;19899;-91
2022/10/21 13:57:50;;;;;;;;;;;14.40;1.00;;;;;;6270105;22;19911;-91
2022/10/21 14:00:38;;;;;;;;;;;14.30;1.00;;;;;;6272091;23;19948;-91
2022/10/21 14:03:05;;;;;;;;;;;14.20;1.00;;;;;;6247405;23;19917;-88
2022/10/21 14:05:34;;;;;;;;;;;14.00;1.00;;;;;;6243712;23;20340;-87
2022/10/21 14:08:01;;;;;;;;;;;13.90;1.00;;;;;;6245213;22;19911;-87
2022/10/21 14:10:32;;;;;;;;;;;13.70;1.00;;;;;;6248258;23;19961;-90
2022/10/21 14:13:00;;;;;;;;;;;13.70;1.00;;;;;;6254771;23;20418;-87
2022/10/21 14:15:35;;;;;;;;;;;13.70;1.00;;;;;;6245020;22;20219;-88
2022/10/21 14:18:29;;;;;;;;;;;13.60;1.00;;;;;;6249098;23;19911;-92
2022/10/21 14:20:56;;;;;;;;;;;13.50;1.00;;;;;;6258155;23;20265;-85
2022/10/21 14:23:56;;;;;;;;;;;13.50;1.00;;;;;;6266191;23;19899;-91
2022/10/21 14:26:45;;;;;;;;;;;13.40;1.00;;;;;;6269209;23;19922;-88
2022/10/21 14:29:35;;;;;;;;;;;13.40;1.00;;;;;;6269337;23;19918;-91
2022/10/21 14:32:05;;;;;;;;;;;13.30;1.00;;;;;;6270539;23;19906;-90
2022/10/21 14:34:58;;;;;;;;;;;13.30;1.00;;;;;;6271086;22;19912;-90
2022/10/21 14:37:45;;;;;;;;;;;13.20;1.00;;;;;;6270757;23;19899;-92
2022/10/21 14:40:22;;;;;;;;;;;13.10;1.00;;;;;;6271687;23;19911;-90
2022/10/21 14:43:16;;;;;;;;;;;13.10;1.00;;;;;;6271328;22;19990;-90
2022/10/21 14:45:45;;;;;;;;;;;13.00;1.00;;;;;;6250150;22;19990;-87
2022/10/21 14:48:23;;;;;;;;;;;12.90;1.00;;;;;;6261107;22;19981;-90
2022/10/21 14:50:58;;;;;;;;;;;12.80;1.00;;;;;;6267208;23;19919;-91
2022/10/21 14:53:26;;;;;;;;;;;12.80;1.00;;;;;;6251784;23;19955;-88
2022/10/21 14:55:54;;;;;;;;;;;12.70;1.00;;;;;;6259164;22;19915;-86
2022/10/21 14:58:24;;;;;;;;;;;12.70;1.00;;;;;;6246210;23;19916;-90
2022/10/21 15:00:54;;;;;;;;;;;12.60;1.00;;;;;;6249107;22;19983;-86
2022/10/21 15:03:35;;;;;;;;;;;12.50;1.00;;;;;;6244376;22;19965;-85
2022/10/21 15:06:09;;;;;;;;;;;12.50;1.00;;;;;;6259053;23;19911;-86
2022/10/21 15:08:39;;;;;;;;;;;12.50;1.00;;;;;;6245594;23;19965;-84
2022/10/21 15:11:17;;;;;;;;;;;12.40;1.00;;;;;;6245297;23;19990;-84
2022/10/21 15:13:57;;;;;;;;;;;12.40;1.00;;;;;;6245444;23;19935;-85
2022/10/21 15:16:32;;;;;;;;;;;12.30;1.00;;;;;;6264114;23;19918;-90
2022/10/21 15:19:05;;;;;;;;;;;12.30;1.00;;;;;;6248683;23;20267;-86
2022/10/21 15:21:35;;;;;;;;;;;12.20;1.00;;;;;;6245429;23;19943;-85
2022/10/21 15:24:16;;;;;;;;;;;12.20;1.00;;;;;;6247693;23;20323;-88
2022/10/21 15:26:45;;;;;;;;;;;12.20;1.00;;;;;;6245440;23;19911;-86
2022/10/21 15:29:13;;;;;;;;;;;12.10;1.00;;;;;;6245222;22;19966;-86
2022/10/21 15:31:40;;;;;;;;;;;12.10;1.00;;;;;;6245187;23;19947;-87